createdAt,value
2018-12-08T00:01:23.993Z,1.70
2018-12-08T00:03:51.413Z,1.37
2018-12-08T00:06:18.886Z,1.43
2018-12-08T00:08:46.945Z,1.50
2018-12-08T00:11:14.503Z,1.87
2018-12-08T00:13:42.060Z,1.30
2018-12-08T00:16:10.392Z,1.63
2018-12-08T00:18:37.859Z,1.33
2018-12-08T00:21:12.249Z,1.30
2018-12-08T00:23:39.636Z,1.30
2018-12-08T00:26:07.044Z,1.30
2018-12-08T00:28:34.466Z,1.67
2018-12-08T00:31:13.853Z,1.00
2018-12-08T00:33:41.729Z,1.60
2018-12-08T00:36:09.164Z,1.13
2018-12-08T00:38:36.584Z,1.10
2018-12-08T00:41:04.024Z,1.20
2018-12-08T00:43:31.444Z,1.40
2018-12-08T00:46:01.338Z,1.27
2018-12-08T00:48:29.157Z,0.80
2018-12-08T00:50:56.589Z,0.90
2018-12-08T00:53:24.536Z,1.27
2018-12-08T00:55:52.341Z,1.47
2018-12-08T00:58:19.852Z,1.20
2018-12-08T01:00:47.905Z,1.00
2018-12-08T01:03:15.336Z,0.77
2018-12-08T01:05:42.759Z,1.00
2018-12-08T01:08:10.741Z,1.20
2018-12-08T01:10:38.168Z,1.30
2018-12-08T01:13:05.577Z,1.20
2018-12-08T01:15:32.993Z,1.10
2018-12-08T01:18:00.993Z,1.73
2018-12-08T01:20:28.396Z,1.57
2018-12-08T01:22:55.816Z,1.70
2018-12-08T01:25:23.677Z,1.90
2018-12-08T01:27:51.682Z,1.90
2018-12-08T01:30:19.920Z,1.60
2018-12-08T01:32:47.356Z,1.70
2018-12-08T01:35:16.263Z,1.47
2018-12-08T01:37:43.926Z,1.50
2018-12-08T01:40:13.761Z,1.43
2018-12-08T01:42:41.172Z,1.93
2018-12-08T01:45:08.634Z,1.50
2018-12-08T01:47:36.048Z,1.70
2018-12-08T01:50:04.665Z,1.60
2018-12-08T01:52:32.732Z,1.63
2018-12-08T01:55:00.149Z,1.33
2018-12-08T01:57:27.925Z,1.23
2018-12-08T01:59:55.350Z,1.40
2018-12-08T02:02:22.767Z,1.57
2018-12-08T02:04:56.776Z,1.47
2018-12-08T02:07:24.408Z,1.20
2018-12-08T02:09:51.829Z,1.30
2018-12-08T02:12:19.747Z,1.50
2018-12-08T02:14:47.364Z,1.37
2018-12-08T02:17:15.107Z,1.43
2018-12-08T02:19:42.500Z,1.27
2018-12-08T02:22:09.922Z,1.73
2018-12-08T02:24:37.382Z,1.13
2018-12-08T02:27:05.561Z,1.63
2018-12-08T02:29:33.010Z,1.70
2018-12-08T02:32:00.519Z,1.60
2018-12-08T02:34:28.329Z,1.57
2018-12-08T02:36:55.761Z,1.70
2018-12-08T02:39:23.195Z,1.43
2018-12-08T02:41:50.687Z,1.50
2018-12-08T02:44:18.178Z,1.50
2018-12-08T02:46:46.389Z,1.80
2018-12-08T02:49:20.200Z,1.23
2018-12-08T02:51:50.069Z,1.30
2018-12-08T02:54:17.986Z,1.83
2018-12-08T02:56:45.678Z,1.43
2018-12-08T02:59:13.173Z,1.20
2018-12-08T03:04:13.401Z,1.40
2018-12-08T03:06:40.931Z,1.23
2018-12-08T03:09:08.544Z,1.20
2018-12-08T03:11:35.982Z,1.37
2018-12-08T03:14:03.489Z,1.30
2018-12-08T03:16:31.353Z,1.73
2018-12-08T03:18:59.449Z,0.97
2018-12-08T03:21:26.947Z,1.33
2018-12-08T03:23:54.356Z,1.10
2018-12-08T03:26:21.825Z,1.30
2018-12-08T03:28:49.285Z,1.00
2018-12-08T03:31:16.694Z,0.93
2018-12-08T03:33:44.589Z,1.20
2018-12-08T03:36:12.003Z,1.27
2018-12-08T03:38:39.504Z,1.07
2018-12-08T03:41:07.070Z,0.80
2018-12-08T03:43:34.484Z,1.00
2018-12-08T03:46:02.005Z,0.90
2018-12-08T03:48:29.434Z,0.90
2018-12-08T03:50:56.920Z,0.80
2018-12-08T03:53:24.386Z,1.30
2018-12-08T03:55:52.237Z,0.80
2018-12-08T03:58:19.725Z,0.70
2018-12-08T04:00:47.223Z,1.10
2018-12-08T04:03:14.632Z,1.00
2018-12-08T04:05:42.049Z,1.03
2018-12-08T04:08:09.473Z,1.00
2018-12-08T04:10:36.930Z,1.00
2018-12-08T04:13:04.432Z,1.07
2018-12-08T04:15:31.927Z,1.20
2018-12-08T04:17:59.346Z,1.50
2018-12-08T04:20:26.835Z,1.03
2018-12-08T04:22:54.260Z,1.13
2018-12-08T04:25:21.668Z,0.80
2018-12-08T04:27:49.161Z,0.80
2018-12-08T04:30:16.655Z,1.00
2018-12-08T04:32:44.067Z,0.80
2018-12-08T04:35:11.478Z,0.80
2018-12-08T04:37:38.896Z,0.77
2018-12-08T04:40:06.457Z,0.67
2018-12-08T04:42:34.428Z,0.80
2018-12-08T04:45:04.455Z,0.80
2018-12-08T04:47:32.340Z,0.80
2018-12-08T04:49:59.825Z,0.73
2018-12-08T04:52:27.241Z,0.63
2018-12-08T04:54:54.658Z,0.80
2018-12-08T04:57:22.072Z,0.97
2018-12-08T04:59:49.483Z,0.90
2018-12-08T05:02:16.892Z,1.10
2018-12-08T05:04:44.379Z,1.23
2018-12-08T05:07:11.888Z,1.60
2018-12-08T05:09:40.911Z,1.20
2018-12-08T05:12:10.000Z,1.10
2018-12-08T05:14:37.419Z,1.67
2018-12-08T05:17:05.288Z,1.33
2018-12-08T05:19:32.700Z,1.33
2018-12-08T05:22:00.111Z,1.20
2018-12-08T05:24:27.533Z,1.30
2018-12-08T05:26:55.536Z,1.17
2018-12-08T05:29:22.956Z,1.20
2018-12-08T05:31:50.434Z,1.67
2018-12-08T05:34:17.852Z,1.20
2018-12-08T05:36:45.265Z,1.10
2018-12-08T05:39:12.692Z,1.40
2018-12-08T05:41:40.118Z,1.37
2018-12-08T05:44:07.675Z,1.40
2018-12-08T05:46:35.080Z,1.10
2018-12-08T05:49:02.499Z,1.30
2018-12-08T05:51:29.992Z,1.53
2018-12-08T05:53:57.926Z,1.67
2018-12-08T05:56:25.349Z,0.90
2018-12-08T05:58:52.937Z,1.73
2018-12-08T06:01:20.354Z,1.40
2018-12-08T06:03:50.761Z,1.50
2018-12-08T06:06:18.541Z,1.47
2018-12-08T06:08:46.513Z,1.53
2018-12-08T06:11:14.132Z,1.80
2018-12-08T06:13:41.947Z,1.80
2018-12-08T06:16:09.449Z,1.37
2018-12-08T06:18:36.856Z,1.00
2018-12-08T06:21:04.326Z,1.67
2018-12-08T06:23:31.821Z,1.20
2018-12-08T06:25:59.388Z,1.80
2018-12-08T06:28:26.852Z,1.37
2018-12-08T06:30:54.273Z,1.30
2018-12-08T06:33:22.104Z,1.30
2018-12-08T06:35:49.942Z,1.40
2018-12-08T06:38:17.420Z,1.80
2018-12-08T06:40:45.233Z,1.80
2018-12-08T06:43:12.697Z,1.70
2018-12-08T06:45:40.267Z,1.90
2018-12-08T06:48:10.067Z,1.70
2018-12-08T06:50:37.476Z,1.33
2018-12-08T06:53:04.890Z,1.70
2018-12-08T06:55:32.310Z,2.33
2018-12-08T06:57:59.823Z,1.70
2018-12-08T07:00:27.260Z,1.57
2018-12-08T07:02:57.468Z,1.70
2018-12-08T07:05:25.568Z,2.10
2018-12-08T07:07:52.983Z,1.90
2018-12-08T07:10:20.521Z,1.83
2018-12-08T07:12:47.936Z,1.90
2018-12-08T07:15:15.502Z,2.53
2018-12-08T07:17:42.972Z,1.43
2018-12-08T07:20:10.430Z,1.33
2018-12-08T07:22:37.860Z,1.40
2018-12-08T07:25:05.339Z,2.20
2018-12-08T07:27:32.760Z,1.60
2018-12-08T07:30:00.185Z,1.77
2018-12-08T07:32:27.669Z,1.77
2018-12-08T07:34:55.092Z,1.80
2018-12-08T07:37:22.496Z,1.73
2018-12-08T07:39:49.928Z,1.40
2018-12-08T07:42:17.380Z,1.50
2018-12-08T07:44:44.793Z,1.50
2018-12-08T07:47:12.232Z,1.50
2018-12-08T07:49:40.869Z,1.53
2018-12-08T07:52:08.370Z,1.80
2018-12-08T07:54:36.161Z,1.30
2018-12-08T07:57:04.026Z,1.10
2018-12-08T07:59:31.437Z,1.07
2018-12-08T08:01:58.884Z,1.20
2018-12-08T08:04:26.300Z,1.33
2018-12-08T08:06:56.131Z,1.10
2018-12-08T08:09:23.614Z,1.40
2018-12-08T08:11:51.055Z,1.30
2018-12-08T08:14:18.866Z,1.03
2018-12-08T08:16:46.432Z,1.33
2018-12-08T08:19:13.852Z,1.20
2018-12-08T08:21:41.272Z,1.10
2018-12-08T08:24:08.692Z,1.27
2018-12-08T08:26:36.516Z,1.00
2018-12-08T08:29:03.962Z,1.20
2018-12-08T08:31:31.493Z,1.10
2018-12-08T08:33:58.906Z,1.20
2018-12-08T08:36:26.593Z,1.37
2018-12-08T08:38:53.976Z,0.93
2018-12-08T08:41:21.390Z,1.63
2018-12-08T08:43:48.984Z,0.90
2018-12-08T08:46:16.464Z,0.80
2018-12-08T08:48:43.964Z,1.10
2018-12-08T08:51:11.693Z,1.13
2018-12-08T08:53:39.560Z,0.63
2018-12-08T08:56:06.968Z,0.80
2018-12-08T08:58:34.889Z,1.00
2018-12-08T09:01:02.300Z,0.80
2018-12-08T09:03:30.179Z,0.70
2018-12-08T09:05:57.599Z,0.80
2018-12-08T09:08:25.005Z,0.77
2018-12-08T09:10:52.635Z,0.70
2018-12-08T09:13:20.060Z,0.60
2018-12-08T09:15:47.469Z,0.70
2018-12-08T09:18:14.899Z,0.60
2018-12-08T09:20:43.255Z,0.90
2018-12-08T09:23:11.029Z,0.67
2018-12-08T09:25:39.266Z,0.90
2018-12-08T09:28:06.684Z,0.67
2018-12-08T09:30:34.101Z,0.70
2018-12-08T09:33:01.592Z,0.63
2018-12-08T09:35:29.036Z,0.80
2018-12-08T09:37:56.492Z,0.60
2018-12-08T09:40:24.427Z,0.63
2018-12-08T09:42:52.051Z,0.93
2018-12-08T09:45:19.736Z,0.60
2018-12-08T09:47:47.403Z,0.80
2018-12-08T09:50:14.822Z,0.90
2018-12-08T09:52:42.228Z,1.17
2018-12-08T09:55:09.694Z,0.83
2018-12-08T09:57:37.183Z,0.90
2018-12-08T10:00:06.960Z,1.03
2018-12-08T10:02:34.454Z,1.10
2018-12-08T10:05:01.965Z,1.03
2018-12-08T10:07:29.413Z,1.20
2018-12-08T10:09:56.925Z,1.10
2018-12-08T10:12:24.369Z,1.10
2018-12-08T10:14:54.527Z,0.90
2018-12-08T10:17:21.942Z,1.00
2018-12-08T10:19:49.356Z,0.80
2018-12-08T10:22:16.767Z,1.10
2018-12-08T10:24:44.184Z,0.97
2018-12-08T10:27:11.616Z,1.20
2018-12-08T10:29:39.025Z,1.20
2018-12-08T10:32:06.436Z,0.90
2018-12-08T10:34:33.864Z,0.80
2018-12-08T10:37:01.316Z,1.20
2018-12-08T10:39:28.732Z,1.00
2018-12-08T10:41:56.153Z,0.97
2018-12-08T10:44:23.576Z,1.00
2018-12-08T10:46:51.079Z,1.30
2018-12-08T10:49:18.506Z,0.90
2018-12-08T10:51:45.917Z,1.07
2018-12-08T10:54:13.332Z,1.27
2018-12-08T10:56:41.719Z,1.20
2018-12-08T10:59:09.249Z,0.80
2018-12-08T11:01:42.777Z,1.40
2018-12-08T11:04:10.193Z,0.80
2018-12-08T11:06:38.036Z,1.27
2018-12-08T11:09:07.156Z,1.07
2018-12-08T11:11:35.015Z,0.70
2018-12-08T11:14:02.432Z,0.93
2018-12-08T11:16:31.484Z,0.70
2018-12-08T11:18:58.900Z,0.73
2018-12-08T11:21:27.341Z,0.70
2018-12-08T11:23:54.841Z,0.70
2018-12-08T11:26:22.335Z,0.70
2018-12-08T11:28:49.757Z,0.80
2018-12-08T11:31:17.444Z,0.77
2018-12-08T11:33:44.836Z,0.67
2018-12-08T11:36:12.256Z,0.60
2018-12-08T11:38:39.706Z,0.60
2018-12-08T11:41:07.554Z,0.70
2018-12-08T11:43:34.964Z,1.00
2018-12-08T11:46:02.416Z,0.90
2018-12-08T11:48:30.264Z,0.60
2018-12-08T11:50:57.710Z,0.43
2018-12-08T11:53:25.854Z,0.73
2018-12-08T11:55:53.245Z,0.60
2018-12-08T11:58:20.669Z,0.60
2018-12-08T12:00:48.200Z,0.80
2018-12-08T12:03:15.617Z,0.77
2018-12-08T12:05:44.518Z,0.90
2018-12-08T12:08:12.492Z,0.70
2018-12-08T12:10:39.911Z,0.80
2018-12-08T12:13:07.411Z,0.70
2018-12-08T12:15:34.952Z,0.70
2018-12-08T12:18:02.449Z,0.90
2018-12-08T12:20:29.869Z,0.93
2018-12-08T12:22:58.090Z,0.60
2018-12-08T12:25:26.528Z,1.03
2018-12-08T12:27:54.156Z,0.80
2018-12-08T12:30:21.720Z,1.00
2018-12-08T12:32:49.172Z,1.43
2018-12-08T12:35:16.584Z,1.43
2018-12-08T12:37:44.008Z,1.10
2018-12-08T12:40:11.538Z,1.23
2018-12-08T12:42:39.060Z,0.93
2018-12-08T12:45:06.892Z,1.07
2018-12-08T12:47:34.960Z,1.23
2018-12-08T12:50:04.601Z,0.80
2018-12-08T12:52:32.057Z,0.90
2018-12-08T12:54:59.489Z,1.23
2018-12-08T12:57:27.402Z,0.87
2018-12-08T12:59:56.608Z,0.90
2018-12-08T13:02:24.614Z,0.93
2018-12-08T13:04:52.759Z,0.93
2018-12-08T13:07:20.264Z,0.90
2018-12-08T13:09:47.704Z,0.80
2018-12-08T13:12:15.680Z,0.50
2018-12-08T13:14:43.618Z,0.63
2018-12-08T13:17:11.030Z,0.80
2018-12-08T13:19:38.460Z,0.90
2018-12-08T13:22:08.358Z,0.60
2018-12-08T13:24:35.774Z,0.60
2018-12-08T13:27:03.181Z,0.70
2018-12-08T13:29:30.600Z,0.73
2018-12-08T13:32:00.619Z,0.67
2018-12-08T13:34:28.118Z,0.70
2018-12-08T13:36:56.400Z,0.80
2018-12-08T13:39:23.839Z,0.60
2018-12-08T13:41:51.362Z,0.80
2018-12-08T13:44:37.326Z,0.57
2018-12-08T13:47:04.861Z,0.67
2018-12-08T13:49:32.348Z,0.60
2018-12-08T13:51:59.760Z,0.67
2018-12-08T13:54:38.908Z,0.60
2018-12-08T13:57:06.376Z,0.60
2018-12-08T13:59:33.856Z,0.93
2018-12-08T14:02:01.676Z,0.90
2018-12-08T14:04:29.512Z,0.70
2018-12-08T14:06:56.932Z,1.17
2018-12-08T14:09:24.436Z,0.60
2018-12-08T14:11:52.343Z,1.20
2018-12-08T14:14:19.759Z,0.70
2018-12-08T14:16:47.428Z,1.00
2018-12-08T14:19:14.919Z,0.90
2018-12-08T14:21:42.413Z,0.60
2018-12-08T14:24:09.837Z,0.70
2018-12-08T14:26:39.967Z,0.70
2018-12-08T14:29:07.692Z,0.60
2018-12-08T14:31:35.912Z,0.30
2018-12-08T14:34:04.808Z,0.63
2018-12-08T14:36:32.223Z,0.60
2018-12-08T14:38:59.786Z,0.70
2018-12-08T14:41:27.521Z,0.80
2018-12-08T14:43:55.592Z,0.60
2018-12-08T14:46:23.078Z,0.70
2018-12-08T14:48:50.487Z,0.80
2018-12-08T14:51:17.902Z,0.60
2018-12-08T14:53:45.445Z,0.40
2018-12-08T14:56:13.837Z,0.70
2018-12-08T14:58:41.297Z,0.57
2018-12-08T15:01:09.140Z,0.70
2018-12-08T15:03:36.995Z,0.63
2018-12-08T15:06:04.416Z,0.60
2018-12-08T15:08:32.896Z,0.50
2018-12-08T15:11:01.042Z,0.40
2018-12-08T15:13:28.466Z,0.97
2018-12-08T15:15:55.998Z,0.83
2018-12-08T15:18:23.820Z,0.97
2018-12-08T15:20:51.315Z,0.63
2018-12-08T15:23:18.709Z,0.77
2018-12-08T15:25:46.129Z,0.90
2018-12-08T15:28:13.543Z,1.30
2018-12-08T15:30:40.955Z,1.40
2018-12-08T15:33:08.452Z,1.10
2018-12-08T15:35:35.911Z,1.40
2018-12-08T15:38:03.352Z,1.33
2018-12-08T15:40:31.028Z,1.60
2018-12-08T15:42:58.847Z,1.53
2018-12-08T15:45:26.329Z,1.20
2018-12-08T15:47:53.740Z,1.20
2018-12-08T15:50:21.264Z,1.50
2018-12-08T15:52:48.741Z,1.80
2018-12-08T15:55:16.851Z,1.43
2018-12-08T15:57:44.342Z,1.10
2018-12-08T16:00:14.348Z,1.10
2018-12-08T16:02:41.793Z,1.20
2018-12-08T16:05:10.491Z,1.67
2018-12-08T16:07:38.481Z,1.70
2018-12-08T16:10:09.053Z,1.27
2018-12-08T16:12:39.033Z,1.23
2018-12-08T16:15:07.666Z,1.57
2018-12-08T16:17:35.076Z,1.33
2018-12-08T16:20:02.965Z,1.00
2018-12-08T16:22:30.500Z,0.87
2018-12-08T16:24:57.916Z,1.30
2018-12-08T16:27:25.720Z,1.50
2018-12-08T16:29:53.520Z,0.90
2018-12-08T16:32:21.013Z,1.60
2018-12-08T16:34:48.428Z,1.70
2018-12-08T16:37:15.937Z,1.40
2018-12-08T16:39:43.821Z,1.40
2018-12-08T16:42:11.295Z,1.37
2018-12-08T16:44:38.785Z,1.30
2018-12-08T16:47:06.246Z,1.70
2018-12-08T16:49:33.698Z,1.30
2018-12-08T16:52:02.065Z,1.87
2018-12-08T16:54:30.263Z,1.53
2018-12-08T16:56:57.679Z,1.70
2018-12-08T16:59:25.116Z,1.70
2018-12-08T17:01:53.553Z,2.17
2018-12-08T17:04:21.848Z,1.53
2018-12-08T17:06:49.773Z,1.87
2018-12-08T17:09:17.808Z,2.00
2018-12-08T17:11:45.299Z,1.40
2018-12-08T17:14:12.815Z,1.27
2018-12-08T17:16:40.369Z,1.27
2018-12-08T17:19:08.535Z,1.20
2018-12-08T17:21:38.430Z,1.30
2018-12-08T17:24:05.884Z,1.40
2018-12-08T17:26:33.403Z,1.50
2018-12-08T17:29:01.391Z,1.40
2018-12-08T17:31:28.866Z,1.50
2018-12-08T17:33:56.685Z,1.60
2018-12-08T17:36:24.184Z,1.73
2018-12-08T17:38:51.699Z,1.33
2018-12-08T17:41:19.107Z,1.63
2018-12-08T17:43:46.519Z,1.70
2018-12-08T17:46:13.946Z,1.97
2018-12-08T17:48:41.440Z,1.30
2018-12-08T17:51:09.707Z,2.23
2018-12-08T17:53:37.099Z,1.63
2018-12-08T17:56:04.611Z,1.70
2018-12-08T17:58:32.055Z,2.03
2018-12-08T18:00:59.478Z,1.80
2018-12-08T18:03:26.930Z,1.67
2018-12-08T18:05:55.167Z,2.90
2018-12-08T18:08:22.591Z,1.40
2018-12-08T18:10:50.001Z,1.60
2018-12-08T18:13:17.404Z,1.70
2018-12-08T18:15:44.819Z,1.87
2018-12-08T18:18:12.236Z,2.03
2018-12-08T18:20:40.213Z,1.90
2018-12-08T18:23:07.654Z,1.83
2018-12-08T18:25:35.071Z,2.47
2018-12-08T18:28:02.495Z,1.97
2018-12-08T18:30:29.909Z,1.83
2018-12-08T18:32:57.334Z,2.33
2018-12-08T18:35:24.837Z,1.50
2018-12-08T18:37:52.794Z,1.63
2018-12-08T18:40:20.317Z,1.70
2018-12-08T18:42:47.733Z,1.50
2018-12-08T18:45:15.158Z,1.53
2018-12-08T18:47:42.567Z,1.80
2018-12-08T18:50:10.365Z,1.20
2018-12-08T18:52:37.814Z,1.20
2018-12-08T18:55:05.857Z,1.60
2018-12-08T18:57:33.277Z,1.50
2018-12-08T19:00:00.696Z,1.40
2018-12-08T19:02:28.111Z,1.20
2018-12-08T19:04:55.536Z,1.57
2018-12-08T19:07:23.103Z,1.00
2018-12-08T19:09:50.520Z,1.37
2018-12-08T19:12:18.498Z,1.40
2018-12-08T19:14:46.168Z,1.30
2018-12-08T19:17:13.584Z,1.27
2018-12-08T19:19:41.124Z,0.90
2018-12-08T19:22:09.068Z,1.10
2018-12-08T19:24:36.528Z,1.00
2018-12-08T19:27:04.931Z,0.73
2018-12-08T19:29:32.454Z,1.23
2018-12-08T19:31:59.987Z,1.40
2018-12-08T19:34:27.392Z,1.30
2018-12-08T19:36:54.808Z,1.27
2018-12-08T19:39:22.841Z,0.90
2018-12-08T19:41:50.255Z,1.10
2018-12-08T19:44:17.671Z,1.10
2018-12-08T19:46:45.094Z,0.90
2018-12-08T19:49:12.942Z,1.03
2018-12-08T19:51:40.361Z,0.90
2018-12-08T19:54:07.777Z,1.00
2018-12-08T19:56:35.196Z,0.90
2018-12-08T19:59:02.724Z,1.00
2018-12-08T20:01:30.144Z,0.90
2018-12-08T20:03:57.560Z,0.80
2018-12-08T20:06:24.994Z,1.07
2018-12-08T20:08:52.801Z,0.80
2018-12-08T20:11:20.212Z,0.80
2018-12-08T20:13:47.628Z,0.87
2018-12-08T20:16:15.198Z,0.90
2018-12-08T20:18:42.705Z,0.70
2018-12-08T20:21:10.615Z,1.00
2018-12-08T20:23:38.027Z,0.80
2018-12-08T20:26:05.586Z,1.00
2018-12-08T20:28:32.997Z,0.80
2018-12-08T20:31:00.548Z,0.70
2018-12-08T20:33:27.980Z,0.60
2018-12-08T20:35:55.396Z,1.00
2018-12-08T20:38:22.812Z,0.60
2018-12-08T20:40:50.236Z,1.07
2018-12-08T20:43:17.719Z,1.10
2018-12-08T20:45:45.171Z,1.00
2018-12-08T20:48:12.604Z,1.60
2018-12-08T20:50:40.012Z,1.20
2018-12-08T20:53:07.461Z,1.20
2018-12-08T20:55:34.916Z,1.03
2018-12-08T20:58:02.399Z,0.93
2018-12-08T21:00:30.225Z,0.87
2018-12-08T21:02:57.620Z,1.33
2018-12-08T21:05:25.033Z,1.13
2018-12-08T21:07:53.403Z,0.90
2018-12-08T21:10:21.160Z,0.83
2018-12-08T21:12:48.577Z,0.60
2018-12-08T21:15:15.988Z,0.80
2018-12-08T21:17:43.403Z,0.90
2018-12-08T21:20:10.870Z,0.60
2018-12-08T21:22:38.292Z,0.87
2018-12-08T21:25:06.148Z,0.87
2018-12-08T21:27:33.820Z,0.70
2018-12-08T21:30:01.909Z,0.50
2018-12-08T21:32:29.331Z,0.50
2018-12-08T21:34:56.742Z,0.60
2018-12-08T21:37:24.238Z,0.70
2018-12-08T21:39:51.660Z,0.60
2018-12-08T21:42:19.067Z,0.60
2018-12-08T21:44:46.509Z,0.80
2018-12-08T21:47:13.980Z,0.77
2018-12-08T21:49:41.407Z,0.73
2018-12-08T21:52:09.668Z,1.00
2018-12-08T21:54:37.160Z,1.07
2018-12-08T21:57:07.096Z,1.00
2018-12-08T22:04:22.895Z,0.80
2018-12-08T22:06:50.429Z,0.80
2018-12-08T22:09:17.874Z,0.80
2018-12-08T22:11:45.297Z,1.00
2018-12-08T22:14:12.845Z,0.90
2018-12-08T22:16:40.665Z,0.80
2018-12-08T22:19:08.076Z,1.03
2018-12-08T22:24:10.932Z,0.80
2018-12-08T22:26:38.392Z,0.93
2018-12-08T22:29:05.848Z,0.63
2018-12-08T22:31:33.293Z,0.80
2018-12-08T22:34:00.973Z,0.87
2018-12-08T22:36:28.397Z,0.70
2018-12-08T22:38:55.874Z,1.10
2018-12-08T22:41:23.289Z,0.97
2018-12-08T22:43:50.709Z,0.87
2018-12-08T22:46:18.138Z,0.80
2018-12-08T22:48:45.584Z,1.03
2018-12-08T22:51:13.489Z,1.03
2018-12-08T22:53:43.522Z,1.17
2018-12-08T22:56:10.932Z,1.10
2018-12-08T22:58:38.372Z,1.17
2018-12-08T23:01:05.868Z,1.27
2018-12-08T23:03:33.324Z,1.10
2018-12-08T23:06:00.885Z,1.30
2018-12-08T23:08:28.310Z,0.93
2018-12-08T23:10:58.161Z,1.07
2018-12-08T23:13:25.580Z,1.23
2018-12-08T23:15:52.996Z,1.30
2018-12-08T23:18:20.432Z,1.07
2018-12-08T23:20:47.846Z,0.80
2018-12-08T23:23:15.336Z,0.90
2018-12-08T23:25:42.810Z,0.57
2018-12-08T23:28:10.390Z,0.40
2018-12-08T23:30:37.908Z,0.20
2018-12-08T23:33:05.922Z,0.30
2018-12-08T23:35:33.749Z,0.20
2018-12-08T23:38:01.295Z,0.40
2018-12-08T23:40:28.718Z,0.40
2018-12-08T23:42:56.136Z,0.30
2018-12-08T23:45:23.631Z,0.53
2018-12-08T23:47:51.051Z,0.40
2018-12-08T23:50:18.530Z,0.60
2018-12-08T23:52:45.941Z,0.40
2018-12-08T23:55:13.398Z,0.87
2018-12-08T23:57:40.871Z,0.40
